createdAt,value
2023-02-06T00:01:38.980Z,100.00
2023-02-06T00:04:06.504Z,100.00
2023-02-06T00:06:34.482Z,100.00
2023-02-06T00:09:02.391Z,100.00
2023-02-06T00:11:29.926Z,100.00
2023-02-06T00:13:57.200Z,100.00
2023-02-06T00:16:30.285Z,100.00
2023-02-06T00:18:58.985Z,100.00
2023-02-06T00:21:29.298Z,100.00
2023-02-06T00:23:59.559Z,100.00
2023-02-06T00:26:27.352Z,100.00
2023-02-06T00:28:55.153Z,100.00
2023-02-06T00:31:22.662Z,100.00
2023-02-06T00:33:50.182Z,100.00
2023-02-06T00:36:17.601Z,100.00
2023-02-06T00:38:45.155Z,100.00
2023-02-06T00:41:12.623Z,100.00
2023-02-06T00:43:41.106Z,100.00
2023-02-06T00:46:08.833Z,100.00
2023-02-06T00:48:37.737Z,100.00
2023-02-06T00:51:05.415Z,100.00
2023-02-06T00:53:32.976Z,100.00
2023-02-06T00:56:00.220Z,100.00
2023-02-06T00:58:27.805Z,100.00
2023-02-06T01:00:55.475Z,100.00
2023-02-06T01:03:24.086Z,100.00
2023-02-06T01:05:51.540Z,100.00
2023-02-06T01:08:18.898Z,100.00
2023-02-06T01:10:46.824Z,100.00
2023-02-06T01:13:14.355Z,100.00
2023-02-06T01:15:41.916Z,100.00
2023-02-06T01:18:09.585Z,100.00
2023-02-06T01:20:37.294Z,100.00
2023-02-06T01:23:04.892Z,100.00
2023-02-06T01:25:32.585Z,100.00
2023-02-06T01:28:00.105Z,100.00
2023-02-06T01:30:27.701Z,100.00
2023-02-06T01:32:57.010Z,100.00
2023-02-06T01:35:24.314Z,100.00
2023-02-06T01:37:51.528Z,100.00
2023-02-06T01:40:18.795Z,100.00
2023-02-06T01:42:46.621Z,100.00
2023-02-06T01:45:26.110Z,100.00
2023-02-06T01:48:08.682Z,100.00
2023-02-06T01:50:39.837Z,100.00
2023-02-06T01:53:10.414Z,100.00
2023-02-06T01:55:41.813Z,100.00
2023-02-06T01:58:13.284Z,100.00
2023-02-06T02:00:40.954Z,100.00
2023-02-06T02:03:08.408Z,100.00
2023-02-06T02:05:36.198Z,100.00
2023-02-06T02:08:18.437Z,100.00
2023-02-06T02:10:46.508Z,100.00
2023-02-06T02:13:13.902Z,100.00
2023-02-06T02:15:41.236Z,100.00
2023-02-06T02:18:53.460Z,100.00
2023-02-06T02:21:53.500Z,100.00
2023-02-06T02:24:33.971Z,100.00
2023-02-06T02:27:39.367Z,100.00
2023-02-06T02:30:13.203Z,100.00
2023-02-06T02:32:49.882Z,100.00
2023-02-06T02:35:36.327Z,100.00
2023-02-06T02:38:16.323Z,100.00
2023-02-06T02:41:05.904Z,100.00
2023-02-06T02:43:51.708Z,100.00
2023-02-06T02:46:37.855Z,100.00
2023-02-06T02:49:15.705Z,100.00
2023-02-06T02:51:43.938Z,100.00
2023-02-06T02:54:11.633Z,100.00
2023-02-06T02:56:39.777Z,100.00
2023-02-06T02:59:16.222Z,100.00
2023-02-06T03:01:56.196Z,100.00
2023-02-06T03:04:31.442Z,100.00
2023-02-06T03:07:38.441Z,100.00
2023-02-06T03:10:11.485Z,100.00
2023-02-06T03:12:48.796Z,100.00
2023-02-06T03:15:29.937Z,100.00
2023-02-06T03:18:09.337Z,100.00
2023-02-06T03:20:43.279Z,100.00
2023-02-06T03:23:15.832Z,100.00
2023-02-06T03:25:45.435Z,100.00
2023-02-06T03:28:25.570Z,100.00
2023-02-06T03:30:57.117Z,100.00
2023-02-06T03:33:36.393Z,100.00
2023-02-06T03:36:05.443Z,100.00
2023-02-06T03:38:33.368Z,100.00
2023-02-06T03:41:02.175Z,100.00
2023-02-06T03:43:30.652Z,100.00
2023-02-06T03:46:04.472Z,100.00
2023-02-06T03:48:41.013Z,100.00
2023-02-06T03:51:14.666Z,100.00
2023-02-06T03:53:45.449Z,100.00
2023-02-06T03:56:25.468Z,100.00
2023-02-06T03:58:53.104Z,100.00
2023-02-06T04:01:21.730Z,100.00
2023-02-06T04:03:49.922Z,100.00
2023-02-06T04:06:17.471Z,100.00
2023-02-06T04:08:45.013Z,100.00
2023-02-06T04:11:12.292Z,100.00
2023-02-06T04:13:39.524Z,100.00
2023-02-06T04:16:06.890Z,100.00
2023-02-06T04:18:34.282Z,100.00
2023-02-06T04:21:06.908Z,100.00
2023-02-06T04:23:34.844Z,100.00
2023-02-06T04:26:02.363Z,100.00
2023-02-06T04:28:30.069Z,100.00
2023-02-06T04:30:57.549Z,100.00
2023-02-06T04:33:25.022Z,100.00
2023-02-06T04:35:52.465Z,100.00
2023-02-06T04:38:19.969Z,100.00
2023-02-06T04:40:47.288Z,100.00
2023-02-06T04:43:14.475Z,100.00
2023-02-06T04:45:42.075Z,100.00
2023-02-06T04:48:09.616Z,100.00
2023-02-06T04:50:37.119Z,100.00
2023-02-06T04:53:04.589Z,100.00
2023-02-06T04:55:31.843Z,100.00
2023-02-06T04:57:59.265Z,100.00
2023-02-06T05:00:26.630Z,100.00
2023-02-06T05:02:53.920Z,100.00
2023-02-06T05:05:21.329Z,100.00
2023-02-06T05:07:48.956Z,100.00
2023-02-06T05:10:16.348Z,100.00
2023-02-06T05:12:43.969Z,100.00
2023-02-06T05:15:11.345Z,100.00
2023-02-06T05:17:38.964Z,100.00
2023-02-06T05:20:06.928Z,100.00
2023-02-06T05:22:34.359Z,100.00
2023-02-06T05:25:01.850Z,100.00
2023-02-06T05:27:29.242Z,100.00
2023-02-06T05:29:56.663Z,100.00
2023-02-06T05:32:23.953Z,100.00
2023-02-06T05:34:51.273Z,100.00
2023-02-06T05:37:18.788Z,100.00
2023-02-06T05:39:46.189Z,100.00
2023-02-06T05:42:13.560Z,100.00
2023-02-06T05:44:40.750Z,100.00
2023-02-06T05:47:08.004Z,100.00
2023-02-06T05:49:35.141Z,100.00
2023-02-06T05:52:02.489Z,100.00
2023-02-06T05:54:29.913Z,100.00
2023-02-06T05:57:00.191Z,100.00
2023-02-06T05:59:27.516Z,100.00
2023-02-06T06:01:54.919Z,100.00
2023-02-06T06:04:22.251Z,100.00
2023-02-06T06:06:49.789Z,100.00
2023-02-06T06:09:17.360Z,100.00
2023-02-06T06:11:44.783Z,100.00
2023-02-06T06:14:12.078Z,100.00
2023-02-06T06:16:40.753Z,100.00
2023-02-06T06:19:08.330Z,100.00
2023-02-06T06:21:36.029Z,100.00
2023-02-06T06:24:03.645Z,100.00
2023-02-06T06:26:31.545Z,100.00
2023-02-06T06:28:58.994Z,100.00
2023-02-06T06:31:26.449Z,100.00
2023-02-06T06:33:54.340Z,100.00
2023-02-06T06:36:21.993Z,100.00
2023-02-06T06:38:49.446Z,100.00
2023-02-06T06:41:16.749Z,100.00
2023-02-06T06:43:44.050Z,100.00
2023-02-06T06:46:11.489Z,100.00
2023-02-06T06:48:38.822Z,100.00
2023-02-06T06:51:07.074Z,100.00
2023-02-06T06:53:34.740Z,100.00
2023-02-06T06:56:04.264Z,100.00
2023-02-06T06:58:31.816Z,100.00
2023-02-06T07:00:59.459Z,100.00
2023-02-06T07:03:26.864Z,100.00
2023-02-06T07:05:54.258Z,100.00
2023-02-06T07:08:21.465Z,100.00
2023-02-06T07:10:48.771Z,100.00
2023-02-06T07:13:16.019Z,100.00
2023-02-06T07:15:43.384Z,100.00
2023-02-06T07:18:11.807Z,100.00
2023-02-06T07:20:39.721Z,100.00
2023-02-06T07:23:07.338Z,100.00
2023-02-06T07:25:35.201Z,100.00
2023-02-06T07:29:58.100Z,100.00
2023-02-06T07:32:26.803Z,100.00
2023-02-06T07:34:54.218Z,100.00
2023-02-06T07:37:21.649Z,100.00
2023-02-06T07:39:48.853Z,100.00
2023-02-06T07:42:16.225Z,100.00
2023-02-06T07:44:51.798Z,100.00
2023-02-06T07:47:19.351Z,100.00
2023-02-06T07:49:46.686Z,100.00
2023-02-06T07:52:15.827Z,100.00
2023-02-06T07:54:43.235Z,100.00
2023-02-06T07:57:10.794Z,100.00
2023-02-06T07:59:38.100Z,100.00
2023-02-06T08:02:05.375Z,100.00
2023-02-06T08:04:35.750Z,100.00
2023-02-06T08:07:05.005Z,100.00
2023-02-06T08:09:33.460Z,100.00
2023-02-06T08:12:01.019Z,100.00
2023-02-06T08:14:28.802Z,100.00
2023-02-06T08:16:56.286Z,100.00
2023-02-06T08:19:23.840Z,100.00
2023-02-06T08:21:51.654Z,100.00
2023-02-06T08:24:19.253Z,99.96
2023-02-06T08:26:46.814Z,98.60
2023-02-06T08:29:14.593Z,98.11
2023-02-06T08:31:42.808Z,95.53
2023-02-06T08:34:12.774Z,93.40
2023-02-06T08:36:43.183Z,93.64
2023-02-06T08:39:13.820Z,94.64
2023-02-06T08:41:43.645Z,94.63
2023-02-06T08:44:16.289Z,92.96
2023-02-06T08:46:46.001Z,94.18
2023-02-06T08:49:22.373Z,90.74
2023-02-06T08:51:50.487Z,88.81
2023-02-06T08:54:21.319Z,89.04
2023-02-06T08:56:50.125Z,89.40
2023-02-06T08:59:19.357Z,89.91
2023-02-06T09:01:49.200Z,88.71
2023-02-06T09:04:17.613Z,87.82
2023-02-06T09:06:49.047Z,87.72
2023-02-06T09:09:16.924Z,86.64
2023-02-06T09:11:44.690Z,87.81
2023-02-06T09:14:17.969Z,87.05
2023-02-06T09:16:45.677Z,86.79
2023-02-06T09:19:13.457Z,86.22
2023-02-06T09:21:41.305Z,84.97
2023-02-06T09:24:09.899Z,82.75
2023-02-06T09:26:53.480Z,84.06
2023-02-06T09:29:28.958Z,82.03
2023-02-06T09:31:57.612Z,81.37
2023-02-06T09:34:26.083Z,82.55
2023-02-06T09:36:54.764Z,84.00
2023-02-06T09:39:22.506Z,83.85
2023-02-06T09:41:56.832Z,83.36
2023-02-06T09:44:34.271Z,83.75
2023-02-06T09:47:37.213Z,82.21
2023-02-06T09:50:33.331Z,80.06
2023-02-06T09:53:37.178Z,78.99
2023-02-06T09:56:37.211Z,80.83
2023-02-06T09:59:49.793Z,82.10
2023-02-06T10:02:57.675Z,83.03
2023-02-06T10:05:40.859Z,83.88
2023-02-06T10:08:23.607Z,83.94
2023-02-06T10:10:55.111Z,84.24
2023-02-06T10:13:26.430Z,85.03
2023-02-06T10:16:00.480Z,86.58
2023-02-06T10:18:50.428Z,86.36
2023-02-06T10:21:42.835Z,85.99
2023-02-06T10:24:32.296Z,84.71
2023-02-06T10:27:03.855Z,84.11
2023-02-06T10:29:34.318Z,84.07
2023-02-06T10:32:31.947Z,86.95
2023-02-06T10:35:17.678Z,88.17
2023-02-06T10:38:25.942Z,90.12
2023-02-06T10:41:09.089Z,91.06
2023-02-06T10:44:01.019Z,91.09
2023-02-06T10:46:44.384Z,92.09
2023-02-06T10:49:19.888Z,92.08
2023-02-06T10:51:53.544Z,92.39
2023-02-06T10:54:25.407Z,93.68
2023-02-06T10:56:55.989Z,93.61
2023-02-06T10:59:33.997Z,93.01
2023-02-06T11:02:16.341Z,91.01
2023-02-06T11:04:54.172Z,87.78
2023-02-06T11:07:31.876Z,87.63
2023-02-06T11:09:59.616Z,87.56
2023-02-06T11:12:27.059Z,87.71
2023-02-06T11:14:57.911Z,88.17
2023-02-06T11:17:28.434Z,87.01
2023-02-06T11:20:03.167Z,86.16
2023-02-06T11:22:34.895Z,85.02
2023-02-06T11:25:20.663Z,83.56
2023-02-06T11:27:48.790Z,82.84
2023-02-06T11:30:32.223Z,82.23
2023-02-06T11:33:05.231Z,81.90
2023-02-06T11:35:40.402Z,79.97
2023-02-06T11:38:18.382Z,79.61
2023-02-06T11:41:06.004Z,80.12
2023-02-06T11:43:48.651Z,80.47
2023-02-06T11:46:24.609Z,80.62
2023-02-06T11:49:00.998Z,78.67
2023-02-06T11:51:46.901Z,79.78
2023-02-06T11:54:20.625Z,80.50
2023-02-06T11:57:03.865Z,80.89
2023-02-06T11:59:34.671Z,80.71
2023-02-06T12:02:22.277Z,81.49
2023-02-06T12:04:50.351Z,81.46
2023-02-06T12:07:33.770Z,81.68
2023-02-06T12:10:03.946Z,82.09
2023-02-06T12:12:35.209Z,81.82
2023-02-06T12:15:36.218Z,79.79
2023-02-06T12:18:09.394Z,80.47
2023-02-06T12:20:46.040Z,81.99
2023-02-06T12:23:37.247Z,81.29
2023-02-06T12:26:09.950Z,79.82
2023-02-06T12:29:00.288Z,79.82
2023-02-06T12:31:43.645Z,79.13
2023-02-06T12:34:16.314Z,77.70
2023-02-06T12:37:00.469Z,77.70
2023-02-06T12:39:32.850Z,76.76
2023-02-06T12:42:34.376Z,75.42
2023-02-06T12:45:17.406Z,74.48
2023-02-06T12:47:57.831Z,74.47
2023-02-06T12:50:33.689Z,73.93
2023-02-06T12:53:14.616Z,74.95
2023-02-06T12:55:55.070Z,76.05
2023-02-06T12:58:28.250Z,76.45
2023-02-06T13:01:29.998Z,76.49
2023-02-06T13:04:04.548Z,76.49
2023-02-06T13:06:54.048Z,76.87
2023-02-06T13:09:35.495Z,76.32
2023-02-06T13:12:16.566Z,76.01
2023-02-06T13:14:48.197Z,76.41
2023-02-06T13:17:22.835Z,76.20
2023-02-06T13:19:52.551Z,76.39
2023-02-06T13:22:20.297Z,75.03
2023-02-06T13:24:50.567Z,75.14
2023-02-06T13:27:26.064Z,73.18
2023-02-06T13:29:54.157Z,73.46
2023-02-06T13:32:31.632Z,74.25
2023-02-06T13:35:05.090Z,74.26
2023-02-06T13:37:33.955Z,74.20
2023-02-06T13:40:26.808Z,73.02
2023-02-06T13:43:10.414Z,73.65
2023-02-06T13:45:44.420Z,73.88
2023-02-06T13:48:37.111Z,74.21
2023-02-06T13:51:32.605Z,73.11
2023-02-06T13:54:09.074Z,74.24
2023-02-06T13:57:00.677Z,74.47
2023-02-06T13:59:47.982Z,74.83
2023-02-06T14:02:31.194Z,74.10
2023-02-06T14:05:00.399Z,73.34
2023-02-06T14:07:48.277Z,71.92
2023-02-06T14:10:34.424Z,70.01
2023-02-06T14:13:29.880Z,69.67
2023-02-06T14:16:19.000Z,70.06
2023-02-06T14:19:11.697Z,70.35
2023-02-06T14:22:04.507Z,69.89
2023-02-06T14:24:35.029Z,66.37
2023-02-06T14:27:12.594Z,64.39
2023-02-06T14:29:43.234Z,64.04
2023-02-06T14:32:24.635Z,63.60
2023-02-06T14:35:16.744Z,61.77
2023-02-06T14:38:11.389Z,62.18
2023-02-06T14:40:42.761Z,62.18
2023-02-06T14:43:17.926Z,61.41
2023-02-06T14:46:05.491Z,61.90
2023-02-06T14:48:48.118Z,61.74
2023-02-06T14:51:34.208Z,61.53
2023-02-06T14:54:05.214Z,62.29
2023-02-06T14:56:34.284Z,60.51
2023-02-06T14:59:14.943Z,58.69
2023-02-06T15:01:46.824Z,57.35
2023-02-06T15:04:43.927Z,58.54
2023-02-06T15:07:22.056Z,57.81
2023-02-06T15:10:01.074Z,58.07
2023-02-06T15:12:30.230Z,58.89
2023-02-06T15:15:02.920Z,59.70
2023-02-06T15:17:32.026Z,59.14
2023-02-06T15:20:25.754Z,56.40
2023-02-06T15:23:11.585Z,55.76
2023-02-06T15:26:20.481Z,55.71
2023-02-06T15:28:48.368Z,55.96
2023-02-06T15:31:21.595Z,56.59
2023-02-06T15:33:55.745Z,57.83
2023-02-06T15:36:38.628Z,57.74
2023-02-06T15:39:09.634Z,58.37
2023-02-06T15:41:39.461Z,57.71
2023-02-06T15:44:21.844Z,57.46
2023-02-06T15:46:51.085Z,57.37
2023-02-06T15:49:34.061Z,57.81
2023-02-06T15:52:02.144Z,57.18
2023-02-06T15:54:29.920Z,56.27
2023-02-06T15:57:25.373Z,56.08
2023-02-06T15:59:53.045Z,55.73
2023-02-06T16:02:23.971Z,56.34
2023-02-06T16:04:53.297Z,54.91
2023-02-06T16:07:27.523Z,54.57
2023-02-06T16:10:13.887Z,55.35
2023-02-06T16:12:43.640Z,54.31
2023-02-06T16:15:31.985Z,54.62
2023-02-06T16:18:02.346Z,54.18
2023-02-06T16:20:37.459Z,53.34
2023-02-06T16:23:26.701Z,53.66
2023-02-06T16:26:05.062Z,54.26
2023-02-06T16:28:39.018Z,54.04
2023-02-06T16:31:06.928Z,54.37
2023-02-06T16:33:39.817Z,53.50
2023-02-06T16:36:07.874Z,53.84
2023-02-06T16:38:38.400Z,54.27
2023-02-06T16:41:38.272Z,52.98
2023-02-06T16:44:15.307Z,52.64
2023-02-06T16:46:43.774Z,52.59
2023-02-06T16:49:17.277Z,53.30
2023-02-06T16:51:52.143Z,52.51
2023-02-06T16:54:29.434Z,53.19
2023-02-06T16:56:59.730Z,53.46
2023-02-06T16:59:47.737Z,53.86
2023-02-06T17:02:16.019Z,53.96
2023-02-06T17:04:43.962Z,53.50
2023-02-06T17:07:20.091Z,52.90
2023-02-06T17:09:48.887Z,53.42
2023-02-06T17:12:19.287Z,54.14
2023-02-06T17:14:47.033Z,53.74
2023-02-06T17:17:17.147Z,54.31
2023-02-06T17:19:45.641Z,54.80
2023-02-06T17:22:13.432Z,54.73
2023-02-06T17:24:42.561Z,54.53
2023-02-06T17:27:15.958Z,55.04
2023-02-06T17:29:46.252Z,54.43
2023-02-06T17:32:16.458Z,54.92
2023-02-06T17:34:43.893Z,55.31
2023-02-06T17:37:20.635Z,54.86
2023-02-06T17:39:50.082Z,55.57
2023-02-06T17:42:17.849Z,55.87
2023-02-06T17:44:45.690Z,55.90
2023-02-06T17:47:13.125Z,55.45
2023-02-06T17:49:40.729Z,55.32
2023-02-06T17:52:08.022Z,56.00
2023-02-06T17:54:35.871Z,56.21
2023-02-06T17:57:03.417Z,56.05
2023-02-06T17:59:30.995Z,55.47
2023-02-06T18:01:59.486Z,55.20
2023-02-06T18:04:28.358Z,54.88
2023-02-06T18:06:55.917Z,54.72
2023-02-06T18:09:23.521Z,54.77
2023-02-06T18:11:51.026Z,54.84
2023-02-06T18:14:18.548Z,54.98
2023-02-06T18:16:47.124Z,55.62
2023-02-06T18:19:14.710Z,55.01
2023-02-06T18:21:42.087Z,55.18
2023-02-06T18:24:09.453Z,54.67
2023-02-06T18:26:36.681Z,54.60
2023-02-06T18:29:04.738Z,54.53
2023-02-06T18:31:35.536Z,54.09
2023-02-06T18:34:07.951Z,54.32
2023-02-06T18:36:36.728Z,54.59
2023-02-06T18:39:05.517Z,54.73
2023-02-06T18:41:51.781Z,54.79
2023-02-06T18:44:19.381Z,54.46
2023-02-06T18:46:46.769Z,54.90
2023-02-06T18:49:14.193Z,54.89
2023-02-06T18:51:41.556Z,55.32
2023-02-06T18:54:10.187Z,55.27
2023-02-06T18:56:38.697Z,55.65
2023-02-06T18:59:06.738Z,55.64
2023-02-06T19:01:34.300Z,55.69
2023-02-06T19:04:01.840Z,56.13
2023-02-06T19:06:31.955Z,55.73
2023-02-06T19:08:59.689Z,56.03
2023-02-06T19:11:27.612Z,56.17
2023-02-06T19:13:55.422Z,56.51
2023-02-06T19:16:23.018Z,57.00
2023-02-06T19:18:50.768Z,56.73
2023-02-06T19:21:21.232Z,56.94
2023-02-06T19:23:55.281Z,56.82
2023-02-06T19:26:24.225Z,56.61
2023-02-06T19:28:52.428Z,56.95
2023-02-06T19:31:26.190Z,57.04
2023-02-06T19:33:59.752Z,57.75
2023-02-06T19:36:28.952Z,57.51
2023-02-06T19:39:00.656Z,57.83
2023-02-06T19:41:30.529Z,57.83
2023-02-06T19:44:00.921Z,57.47
2023-02-06T19:46:28.678Z,57.79
2023-02-06T19:48:56.866Z,58.16
2023-02-06T19:51:30.082Z,58.30
2023-02-06T19:53:59.366Z,58.63
2023-02-06T19:56:38.330Z,58.67
2023-02-06T19:59:18.390Z,58.45
2023-02-06T20:01:50.410Z,58.48
2023-02-06T20:04:19.569Z,58.97
2023-02-06T20:06:47.417Z,59.56
2023-02-06T20:09:16.491Z,59.32
2023-02-06T20:11:44.028Z,59.26
2023-02-06T20:14:12.579Z,59.91
2023-02-06T20:16:42.007Z,60.48
2023-02-06T20:19:15.768Z,60.77
2023-02-06T20:21:47.194Z,60.40
2023-02-06T20:24:18.693Z,60.07
2023-02-06T20:26:47.002Z,60.67
2023-02-06T20:29:25.270Z,60.63
2023-02-06T20:31:53.868Z,61.30
2023-02-06T20:34:21.957Z,60.91
2023-02-06T20:36:50.644Z,61.09
2023-02-06T20:39:18.812Z,61.21
2023-02-06T20:41:49.460Z,62.29
2023-02-06T20:44:17.982Z,62.47
2023-02-06T20:46:46.216Z,63.01
2023-02-06T20:49:17.071Z,62.13
2023-02-06T20:51:44.869Z,62.24
2023-02-06T20:54:12.816Z,61.90
2023-02-06T20:56:40.583Z,62.11
2023-02-06T20:59:09.001Z,63.10
2023-02-06T21:01:36.547Z,63.41
2023-02-06T21:04:06.647Z,63.37
2023-02-06T21:06:36.693Z,63.67
2023-02-06T21:09:06.379Z,64.65
2023-02-06T21:11:37.106Z,64.73
2023-02-06T21:14:06.441Z,64.15
2023-02-06T21:16:35.242Z,64.89
2023-02-06T21:19:05.516Z,64.94
2023-02-06T21:21:33.774Z,65.40
2023-02-06T21:24:01.494Z,65.30
2023-02-06T21:26:29.223Z,65.79
2023-02-06T21:28:58.415Z,66.06
2023-02-06T21:31:34.164Z,66.38
2023-02-06T21:34:07.274Z,67.08
2023-02-06T21:36:36.574Z,67.03
2023-02-06T21:39:04.352Z,68.32
2023-02-06T21:41:32.819Z,68.75
2023-02-06T21:44:00.207Z,69.11
2023-02-06T21:46:30.838Z,68.69
2023-02-06T21:48:59.053Z,68.13
2023-02-06T21:51:26.828Z,68.33
2023-02-06T21:53:54.310Z,68.60
2023-02-06T21:56:22.924Z,68.83
2023-02-06T21:58:50.969Z,69.06
2023-02-06T22:01:30.041Z,68.33
2023-02-06T22:03:58.197Z,69.51
2023-02-06T22:06:27.071Z,68.18
2023-02-06T22:08:56.103Z,68.59
2023-02-06T22:11:25.398Z,68.29
2023-02-06T22:13:56.981Z,67.20
2023-02-06T22:16:25.515Z,68.48
2023-02-06T22:18:53.597Z,68.53
2023-02-06T22:21:24.005Z,69.71
2023-02-06T22:23:52.400Z,69.40
2023-02-06T22:26:21.142Z,69.59
2023-02-06T22:28:49.100Z,70.10
2023-02-06T22:31:22.670Z,70.98
2023-02-06T22:33:51.133Z,71.90
2023-02-06T22:36:22.897Z,71.77
2023-02-06T22:38:59.820Z,72.63
2023-02-06T22:41:28.765Z,73.24
2023-02-06T22:43:56.636Z,73.42
2023-02-06T22:46:32.194Z,73.11
2023-02-06T22:49:00.437Z,72.71
2023-02-06T22:51:28.703Z,74.12
2023-02-06T22:53:56.571Z,73.55
2023-02-06T22:56:34.903Z,72.99
2023-02-06T22:59:10.484Z,74.41
2023-02-06T23:01:44.152Z,73.24
2023-02-06T23:04:15.664Z,74.31
2023-02-06T23:06:44.330Z,74.70
2023-02-06T23:09:18.855Z,75.18
2023-02-06T23:11:47.264Z,76.46
2023-02-06T23:14:16.242Z,75.56
2023-02-06T23:16:44.680Z,75.54
2023-02-06T23:19:13.510Z,76.10
2023-02-06T23:21:43.215Z,76.83
2023-02-06T23:24:11.822Z,77.66
2023-02-06T23:26:42.992Z,77.65
2023-02-06T23:29:15.870Z,77.15
2023-02-06T23:31:45.191Z,78.39
2023-02-06T23:34:13.582Z,79.15
2023-02-06T23:36:41.480Z,79.55
2023-02-06T23:39:09.056Z,80.00
2023-02-06T23:41:36.509Z,79.62
2023-02-06T23:44:07.421Z,79.65
2023-02-06T23:46:37.203Z,79.15
2023-02-06T23:49:06.466Z,78.94
2023-02-06T23:51:35.279Z,76.59
2023-02-06T23:54:02.979Z,77.84
2023-02-06T23:56:31.752Z,78.15
2023-02-06T23:59:00.874Z,76.85
